createdAt,value
2018-12-31T00:05:09.428Z,87.44
2018-12-31T00:07:38.997Z,87.92
2018-12-31T00:10:30.362Z,88.26
2018-12-31T00:13:02.851Z,88.69
2018-12-31T00:15:34.172Z,88.83
2018-12-31T00:18:03.893Z,88.88
2018-12-31T00:20:37.610Z,88.27
2018-12-31T00:23:07.353Z,88.01
2018-12-31T00:25:36.914Z,88.50
2018-12-31T00:30:56.481Z,88.57
2018-12-31T00:33:48.021Z,86.59
2018-12-31T00:36:17.489Z,86.39
2018-12-31T00:38:47.016Z,86.09
2018-12-31T00:44:40.486Z,86.54
2018-12-31T00:47:09.938Z,86.41
2018-12-31T00:49:43.715Z,86.80
2018-12-31T00:52:13.201Z,87.17
2018-12-31T00:54:42.614Z,87.96
2018-12-31T00:57:12.253Z,88.46
2018-12-31T00:59:41.757Z,87.12
2018-12-31T01:02:11.236Z,87.96
2018-12-31T01:04:40.828Z,87.28
2018-12-31T01:07:13.381Z,87.77
2018-12-31T01:09:42.771Z,87.58
2018-12-31T01:12:12.407Z,87.65
2018-12-31T01:14:46.602Z,86.27
2018-12-31T01:17:16.364Z,86.59
2018-12-31T01:19:48.399Z,86.12
2018-12-31T01:22:17.985Z,86.84
2018-12-31T01:24:50.433Z,87.22
2018-12-31T01:27:46.692Z,86.46
2018-12-31T01:30:16.904Z,86.21
2018-12-31T01:32:46.487Z,85.73
2018-12-31T01:35:16.101Z,85.62
2018-12-31T01:37:45.866Z,86.41
2018-12-31T01:40:15.330Z,86.41
2018-12-31T01:42:44.813Z,86.63
2018-12-31T01:45:34.701Z,86.60
2018-12-31T01:48:04.433Z,86.67
2018-12-31T01:50:33.842Z,86.45
2018-12-31T01:53:03.490Z,86.78
2018-12-31T01:55:32.855Z,86.49
2018-12-31T01:58:02.368Z,85.77
2018-12-31T02:00:31.886Z,85.18
2018-12-31T02:03:01.318Z,85.39
2018-12-31T02:05:30.886Z,85.55
2018-12-31T02:08:00.621Z,85.24
2018-12-31T02:10:30.818Z,84.42
2018-12-31T02:13:05.119Z,84.49
2018-12-31T02:15:44.340Z,83.87
2018-12-31T02:18:19.815Z,84.08
2018-12-31T02:20:54.822Z,84.19
2018-12-31T02:23:30.705Z,84.09
2018-12-31T02:26:00.218Z,82.75
2018-12-31T02:28:29.671Z,83.78
2018-12-31T02:31:38.696Z,84.37
2018-12-31T02:34:20.229Z,84.52
2018-12-31T02:39:25.460Z,84.68
2018-12-31T02:44:51.504Z,84.43
2018-12-31T02:47:21.403Z,84.63
2018-12-31T02:49:53.671Z,84.47
2018-12-31T02:52:42.112Z,84.75
2018-12-31T02:55:11.551Z,85.89
2018-12-31T02:57:41.003Z,87.13
2018-12-31T03:00:10.467Z,87.66
2018-12-31T03:02:42.024Z,87.91
2018-12-31T03:05:11.465Z,87.83
2018-12-31T03:07:40.965Z,87.62
2018-12-31T03:10:10.449Z,87.49
2018-12-31T03:12:41.953Z,87.62
2018-12-31T03:15:11.496Z,87.59
2018-12-31T03:17:40.965Z,87.63
2018-12-31T03:20:10.422Z,87.47
2018-12-31T03:22:42.225Z,87.19
2018-12-31T03:25:14.033Z,87.18
2018-12-31T03:27:43.570Z,86.99
2018-12-31T03:30:13.049Z,87.17
2018-12-31T03:32:42.543Z,86.89
2018-12-31T03:35:18.765Z,86.78
2018-12-31T03:38:10.735Z,87.10
2018-12-31T03:40:52.243Z,86.70
2018-12-31T03:46:54.373Z,87.23
2018-12-31T03:49:24.851Z,87.47
2018-12-31T03:52:14.671Z,88.15
2018-12-31T03:54:52.129Z,87.97
2018-12-31T03:57:47.351Z,88.23
2018-12-31T04:00:19.376Z,88.28
2018-12-31T04:02:49.006Z,88.29
2018-12-31T04:05:49.311Z,88.30
2018-12-31T04:08:23.938Z,88.23
2018-12-31T04:11:12.505Z,87.84
2018-12-31T04:13:43.999Z,87.51
2018-12-31T04:16:13.417Z,87.97
2018-12-31T04:18:45.568Z,87.94
2018-12-31T04:21:15.014Z,87.59
2018-12-31T04:23:44.465Z,86.87
2018-12-31T04:26:14.086Z,86.50
2018-12-31T04:28:43.529Z,85.88
2018-12-31T04:31:12.997Z,85.71
2018-12-31T04:33:45.156Z,85.44
2018-12-31T04:39:18.220Z,85.46
2018-12-31T04:41:47.791Z,85.46
2018-12-31T04:44:25.853Z,85.56
2018-12-31T04:46:55.317Z,85.46
2018-12-31T04:49:45.952Z,85.40
2018-12-31T04:52:15.397Z,85.40
2018-12-31T04:54:44.833Z,85.46
2018-12-31T04:57:14.298Z,85.52
2018-12-31T04:59:57.666Z,85.51
2018-12-31T05:02:15.006Z,85.45
2018-12-31T05:04:44.610Z,85.30
2018-12-31T05:07:14.084Z,85.41
2018-12-31T05:09:43.612Z,85.27
2018-12-31T05:12:13.206Z,85.12
2018-12-31T05:14:43.069Z,85.34
2018-12-31T05:17:12.511Z,85.24
2018-12-31T05:19:42.015Z,85.17
2018-12-31T05:22:11.447Z,85.08
2018-12-31T05:24:41.230Z,85.05
2018-12-31T05:27:10.763Z,85.09
2018-12-31T05:29:51.279Z,84.95
2018-12-31T05:32:21.038Z,84.96
2018-12-31T05:34:52.492Z,84.75
2018-12-31T05:37:24.440Z,84.51
2018-12-31T05:39:56.298Z,84.40
2018-12-31T05:42:25.720Z,84.52
2018-12-31T05:47:35.715Z,84.35
2018-12-31T05:52:58.652Z,84.24
2018-12-31T05:55:28.157Z,84.10
2018-12-31T05:57:57.578Z,84.14
2018-12-31T06:03:02.520Z,84.52
2018-12-31T06:05:32.040Z,84.36
2018-12-31T06:08:01.481Z,84.09
2018-12-31T06:13:19.910Z,84.43
2018-12-31T06:15:49.421Z,84.61
2018-12-31T06:18:21.094Z,84.90
2018-12-31T06:20:50.723Z,85.30
2018-12-31T06:23:20.413Z,85.62
2018-12-31T06:26:48.579Z,85.93
2018-12-31T06:29:40.914Z,86.07
2018-12-31T06:32:10.557Z,86.10
2018-12-31T06:34:41.885Z,85.96
2018-12-31T06:37:11.410Z,85.94
2018-12-31T06:42:40.707Z,85.79
2018-12-31T06:45:29.158Z,85.26
2018-12-31T06:48:00.665Z,84.86
2018-12-31T06:50:30.147Z,84.57
2018-12-31T06:53:39.274Z,84.54
2018-12-31T07:01:35.980Z,84.70
2018-12-31T07:04:05.438Z,84.60
2018-12-31T07:06:54.187Z,84.70
2018-12-31T07:09:59.546Z,84.93
2018-12-31T07:12:29.015Z,84.85
2018-12-31T07:14:58.498Z,85.02
2018-12-31T07:17:27.937Z,84.68
2018-12-31T07:19:59.453Z,84.36
2018-12-31T07:22:30.986Z,84.08
2018-12-31T07:25:00.432Z,84.15
2018-12-31T07:27:43.764Z,84.28
2018-12-31T07:30:01.193Z,84.32
2018-12-31T07:32:30.873Z,84.60
2018-12-31T07:35:00.297Z,84.81
2018-12-31T07:37:29.926Z,84.79
2018-12-31T07:40:20.439Z,85.06
2018-12-31T07:42:41.352Z,85.14
2018-12-31T07:45:10.913Z,85.09
2018-12-31T07:47:40.335Z,85.26
2018-12-31T07:50:12.541Z,85.18
2018-12-31T07:52:42.066Z,85.28
2018-12-31T07:55:26.139Z,84.95
2018-12-31T08:00:18.616Z,84.65
2018-12-31T08:02:48.576Z,84.89
2018-12-31T08:05:18.252Z,84.93
2018-12-31T08:07:48.060Z,85.13
2018-12-31T08:10:39.226Z,84.89
2018-12-31T08:13:19.785Z,84.75
2018-12-31T08:18:44.907Z,84.65
2018-12-31T08:21:18.627Z,84.08
2018-12-31T08:23:48.709Z,84.07
2018-12-31T08:26:19.986Z,84.24
2018-12-31T08:31:57.245Z,84.02
2018-12-31T08:34:27.780Z,84.39
2018-12-31T08:36:58.344Z,84.67
2018-12-31T08:39:47.082Z,84.80
2018-12-31T08:45:21.864Z,85.30
2018-12-31T08:47:51.609Z,85.44
2018-12-31T08:50:23.669Z,85.39
2018-12-31T08:52:53.684Z,85.39
2018-12-31T08:55:23.250Z,85.41
2018-12-31T08:57:55.980Z,85.52
2018-12-31T09:00:25.499Z,85.54
2018-12-31T09:03:14.391Z,85.51
2018-12-31T09:05:44.018Z,85.51
2018-12-31T09:08:13.501Z,85.18
2018-12-31T09:10:42.963Z,85.15
2018-12-31T09:13:12.458Z,85.04
2018-12-31T09:15:41.902Z,85.02
2018-12-31T09:18:11.373Z,85.16
2018-12-31T09:20:59.839Z,85.15
2018-12-31T09:23:32.116Z,85.07
2018-12-31T09:26:01.618Z,85.04
2018-12-31T09:28:31.224Z,84.93
2018-12-31T09:31:00.651Z,84.86
2018-12-31T09:33:41.425Z,84.88
2018-12-31T09:36:11.775Z,84.51
2018-12-31T09:39:00.400Z,84.49
2018-12-31T09:41:29.905Z,84.49
2018-12-31T09:44:18.460Z,84.92
2018-12-31T09:46:48.147Z,84.92
2018-12-31T09:49:17.742Z,84.74
2018-12-31T09:51:47.260Z,84.60
2018-12-31T09:54:16.946Z,84.32
2018-12-31T09:56:46.545Z,84.32
2018-12-31T09:59:16.549Z,84.62
2018-12-31T10:01:46.242Z,84.62
2018-12-31T10:04:15.761Z,84.78
2018-12-31T10:06:45.240Z,84.75
2018-12-31T10:09:14.819Z,84.52
2018-12-31T10:12:03.622Z,85.04
2018-12-31T10:14:33.230Z,85.04
2018-12-31T10:17:02.770Z,85.03
2018-12-31T10:19:32.275Z,85.04
2018-12-31T10:22:01.747Z,85.56
2018-12-31T10:24:31.266Z,85.56
2018-12-31T10:27:00.748Z,85.30
2018-12-31T10:29:36.052Z,85.23
2018-12-31T10:32:22.450Z,85.31
2018-12-31T10:35:10.978Z,85.05
2018-12-31T10:37:41.987Z,85.05
2018-12-31T10:40:30.496Z,84.96
2018-12-31T10:43:00.111Z,84.96
2018-12-31T10:45:29.724Z,85.13
2018-12-31T10:48:18.192Z,84.95
2018-12-31T10:50:59.451Z,84.60
2018-12-31T10:53:30.033Z,84.60
2018-12-31T10:55:59.554Z,84.86
2018-12-31T10:58:29.015Z,84.87
2018-12-31T11:01:37.896Z,84.41
2018-12-31T11:04:07.320Z,84.16
2018-12-31T11:06:37.221Z,84.39
2018-12-31T11:09:07.959Z,84.39
2018-12-31T11:11:37.821Z,84.16
2018-12-31T11:14:07.326Z,84.16
2018-12-31T11:16:39.610Z,84.21
2018-12-31T11:19:11.779Z,84.21
2018-12-31T11:21:41.283Z,83.69
2018-12-31T11:24:29.773Z,83.64
2018-12-31T11:30:09.356Z,83.94
2018-12-31T11:32:41.174Z,83.92
2018-12-31T11:35:29.787Z,83.69
2018-12-31T11:38:00.295Z,83.69
2018-12-31T11:40:29.759Z,82.92
2018-12-31T11:43:00.514Z,82.92
2018-12-31T11:46:00.515Z,83.20
2018-12-31T11:48:30.091Z,83.06
2018-12-31T11:50:59.578Z,83.22
2018-12-31T11:53:29.167Z,83.15
2018-12-31T11:56:20.331Z,83.24
2018-12-31T11:59:08.921Z,82.54
2018-12-31T12:01:49.699Z,82.91
2018-12-31T12:04:21.555Z,82.91
2018-12-31T12:06:51.125Z,82.98
2018-12-31T12:12:09.804Z,83.58
2018-12-31T12:14:39.522Z,83.58
2018-12-31T12:17:09.650Z,83.41
2018-12-31T12:28:10.470Z,83.65
2018-12-31T12:30:39.979Z,83.65
2018-12-31T12:39:07.140Z,83.76
2018-12-31T12:44:25.244Z,83.73
2018-12-31T12:46:54.662Z,83.45
2018-12-31T12:49:27.204Z,83.57
2018-12-31T12:51:56.679Z,83.32
2018-12-31T12:54:26.128Z,83.37
2018-12-31T12:56:55.566Z,83.21
2018-12-31T12:59:25.098Z,83.22
2018-12-31T13:01:54.586Z,83.37
2018-12-31T13:04:24.220Z,83.28
2018-12-31T13:07:14.240Z,83.42
2018-12-31T13:09:55.455Z,83.52
2018-12-31T13:12:24.959Z,83.72
2018-12-31T13:14:57.149Z,83.74
2018-12-31T13:17:26.573Z,84.10
2018-12-31T13:20:15.077Z,84.38
2018-12-31T13:25:45.800Z,84.52
2018-12-31T13:28:15.348Z,84.73
2018-12-31T13:31:03.703Z,84.96
2018-12-31T13:33:33.391Z,85.06
2018-12-31T13:36:02.860Z,85.40
2018-12-31T13:38:32.498Z,85.59
2018-12-31T13:43:52.317Z,85.95
2018-12-31T13:46:23.425Z,86.26
2018-12-31T13:48:55.575Z,86.35
2018-12-31T13:51:24.981Z,86.53
2018-12-31T13:54:13.739Z,86.74
2018-12-31T13:56:45.017Z,86.82
2018-12-31T13:59:14.847Z,87.03
2018-12-31T14:02:01.055Z,87.25
2018-12-31T14:04:17.947Z,87.46
2018-12-31T14:09:30.743Z,87.56
2018-12-31T14:12:00.386Z,87.80
2018-12-31T14:14:29.831Z,87.84
2018-12-31T14:16:59.295Z,87.90
2018-12-31T14:19:31.652Z,87.96
2018-12-31T14:22:01.028Z,88.07
2018-12-31T14:24:30.587Z,88.01
2018-12-31T14:27:00.718Z,88.04
2018-12-31T14:29:32.165Z,87.93
2018-12-31T14:34:53.375Z,87.90
2018-12-31T14:37:24.841Z,87.90
2018-12-31T14:39:54.467Z,88.18
2018-12-31T14:42:25.656Z,88.51
2018-12-31T14:50:26.721Z,88.78
2018-12-31T14:52:56.214Z,88.96
2018-12-31T14:55:27.121Z,89.04
2018-12-31T14:57:56.612Z,88.99
2018-12-31T15:00:26.347Z,89.00
2018-12-31T15:02:55.833Z,88.79
2018-12-31T15:05:25.289Z,89.27
2018-12-31T15:07:54.812Z,89.05
2018-12-31T15:10:43.289Z,89.01
2018-12-31T15:13:12.768Z,88.99
2018-12-31T15:15:42.155Z,88.92
2018-12-31T15:18:13.258Z,89.00
2018-12-31T15:20:46.134Z,89.13
2018-12-31T15:23:35.349Z,89.58
2018-12-31T15:26:04.821Z,89.17
2018-12-31T15:28:34.255Z,89.17
2018-12-31T15:31:03.758Z,88.90
2018-12-31T15:33:33.349Z,88.80
2018-12-31T15:36:14.670Z,88.80
2018-12-31T15:39:03.052Z,89.23
2018-12-31T15:41:52.371Z,89.75
2018-12-31T15:44:21.888Z,89.75
2018-12-31T15:46:51.488Z,89.55
2018-12-31T15:49:21.019Z,89.61
2018-12-31T15:51:50.734Z,89.57
2018-12-31T15:57:15.626Z,89.35
2018-12-31T15:59:45.537Z,89.38
2018-12-31T16:02:15.026Z,89.29
2018-12-31T16:05:03.546Z,89.84
2018-12-31T16:07:45.893Z,89.59
2018-12-31T16:13:01.784Z,89.99
2018-12-31T16:15:31.200Z,89.99
2018-12-31T16:18:00.643Z,90.07
2018-12-31T16:20:30.117Z,90.07
2018-12-31T16:22:59.557Z,90.21
2018-12-31T16:25:28.964Z,90.03
2018-12-31T16:28:04.085Z,90.03
2018-12-31T16:30:33.591Z,90.04
2018-12-31T16:33:04.869Z,90.05
2018-12-31T16:35:34.300Z,89.92
2018-12-31T16:38:03.981Z,90.00
2018-12-31T16:40:33.486Z,90.02
2018-12-31T16:43:24.114Z,90.09
2018-12-31T16:45:53.645Z,90.15
2018-12-31T16:48:23.227Z,90.08
2018-12-31T16:50:52.674Z,89.88
2018-12-31T16:53:22.333Z,90.08
2018-12-31T16:55:51.845Z,89.86
2018-12-31T16:58:21.315Z,89.74
2018-12-31T17:00:50.807Z,89.49
2018-12-31T17:06:11.237Z,89.14
2018-12-31T17:08:40.773Z,89.08
2018-12-31T17:11:10.225Z,89.04
2018-12-31T17:13:39.683Z,88.94
2018-12-31T17:16:09.530Z,89.39
2018-12-31T17:18:39.063Z,90.29
2018-12-31T17:21:08.507Z,90.78
2018-12-31T17:23:38.083Z,91.13
2018-12-31T17:26:26.463Z,91.09
2018-12-31T17:28:56.002Z,91.04
2018-12-31T17:31:25.480Z,90.61
2018-12-31T17:36:29.550Z,90.07
2018-12-31T17:38:59.257Z,89.63
2018-12-31T17:41:28.730Z,89.72
2018-12-31T17:46:47.026Z,89.61
2018-12-31T17:49:16.494Z,89.46
2018-12-31T17:51:45.973Z,89.62
2018-12-31T17:54:16.029Z,89.62
2018-12-31T17:56:45.748Z,89.72
2018-12-31T17:59:15.207Z,89.74
2018-12-31T18:01:44.652Z,89.60
2018-12-31T18:04:14.135Z,89.54
2018-12-31T18:06:43.542Z,89.31
2018-12-31T18:09:14.764Z,89.16
2018-12-31T18:14:38.408Z,88.87
2018-12-31T18:17:08.286Z,88.78
2018-12-31T18:19:37.922Z,88.75
2018-12-31T18:22:07.558Z,88.57
2018-12-31T18:24:37.118Z,88.42
2018-12-31T18:27:06.539Z,88.40
2018-12-31T18:29:36.176Z,88.51
2018-12-31T18:32:05.646Z,88.36
2018-12-31T18:34:35.270Z,88.46
2018-12-31T18:37:04.672Z,88.27
2018-12-31T18:39:34.218Z,88.22
2018-12-31T18:42:15.097Z,88.22
2018-12-31T18:44:44.566Z,88.08
2018-12-31T18:47:14.050Z,88.12
2018-12-31T18:49:43.505Z,88.08
2018-12-31T18:52:13.196Z,88.03
2018-12-31T18:54:42.604Z,87.97
2018-12-31T18:57:12.063Z,87.75
2018-12-31T18:59:41.535Z,87.86
2018-12-31T19:02:11.011Z,87.67
2018-12-31T19:04:40.470Z,87.48
2018-12-31T19:07:09.944Z,87.31
2018-12-31T19:09:58.338Z,87.30
2018-12-31T19:12:28.172Z,87.18
2018-12-31T19:14:57.657Z,87.10
2018-12-31T19:17:29.606Z,87.08
2018-12-31T19:19:59.036Z,86.96
2018-12-31T19:22:28.470Z,86.79
2018-12-31T19:24:59.668Z,86.78
2018-12-31T19:27:29.272Z,86.58
2018-12-31T19:29:58.699Z,86.53
2018-12-31T19:32:48.799Z,86.51
2018-12-31T19:35:18.378Z,86.35
2018-12-31T19:40:23.278Z,86.18
2018-12-31T19:43:04.588Z,86.00
2018-12-31T19:45:34.317Z,85.86
2018-12-31T19:48:03.713Z,85.79
2018-12-31T19:50:33.296Z,85.64
2018-12-31T19:53:02.723Z,85.39
2018-12-31T19:55:34.609Z,85.28
2018-12-31T20:01:06.558Z,85.01
2018-12-31T20:03:26.467Z,84.82
2018-12-31T20:08:45.021Z,84.79
2018-12-31T20:11:14.417Z,84.60
2018-12-31T20:13:43.845Z,84.59
2018-12-31T20:16:13.290Z,84.47
2018-12-31T20:18:44.792Z,84.44
2018-12-31T20:21:14.251Z,84.23
2018-12-31T20:23:43.695Z,84.17
2018-12-31T20:26:13.216Z,84.20
2018-12-31T20:28:43.084Z,84.22
2018-12-31T20:33:51.126Z,84.14
2018-12-31T20:36:20.954Z,84.05
2018-12-31T20:38:50.423Z,84.20
2018-12-31T20:41:19.875Z,84.12
2018-12-31T20:43:49.374Z,84.18
2018-12-31T20:46:18.883Z,84.24
2018-12-31T20:49:04.442Z,84.21
2018-12-31T20:54:08.549Z,84.29
2018-12-31T20:56:38.412Z,84.17
2018-12-31T20:59:08.273Z,84.10
2018-12-31T21:01:42.605Z,84.07
2018-12-31T21:04:12.156Z,84.17
2018-12-31T21:06:41.777Z,84.12
2018-12-31T21:09:11.293Z,84.00
2018-12-31T21:11:41.200Z,84.00
2018-12-31T21:14:10.599Z,83.96
2018-12-31T21:16:40.175Z,84.01
2018-12-31T21:19:09.568Z,84.02
2018-12-31T21:21:39.771Z,83.99
2018-12-31T21:24:10.897Z,83.94
2018-12-31T21:26:41.538Z,84.10
2018-12-31T21:29:12.687Z,83.94
2018-12-31T21:31:42.122Z,83.92
2018-12-31T21:34:11.530Z,83.90
2018-12-31T21:36:41.004Z,83.90
2018-12-31T21:39:10.489Z,83.76
2018-12-31T21:41:40.023Z,83.73
2018-12-31T21:44:09.426Z,83.65
2018-12-31T21:46:39.015Z,83.69
2018-12-31T21:49:08.420Z,83.58
2018-12-31T21:51:37.994Z,83.59
2018-12-31T21:54:07.448Z,83.69
2018-12-31T21:56:48.733Z,83.57
2018-12-31T21:59:21.982Z,83.49
2018-12-31T22:01:51.396Z,83.48
2018-12-31T22:04:23.609Z,83.46
2018-12-31T22:06:53.264Z,83.26
2018-12-31T22:09:23.086Z,83.12
2018-12-31T22:11:52.675Z,83.07
2018-12-31T22:14:41.109Z,83.12
2018-12-31T22:17:10.588Z,83.08
2018-12-31T22:19:40.435Z,83.05
2018-12-31T22:22:12.980Z,83.05
2018-12-31T22:24:44.720Z,83.03
2018-12-31T22:27:14.307Z,83.09
2018-12-31T22:29:43.764Z,83.11
2018-12-31T22:32:13.168Z,83.19
2018-12-31T22:34:48.255Z,83.21
2018-12-31T22:37:17.760Z,83.15
2018-12-31T22:39:47.169Z,83.09
2018-12-31T22:47:27.266Z,83.03
2018-12-31T22:52:52.316Z,83.03
2018-12-31T22:55:21.938Z,82.93
2018-12-31T22:57:53.850Z,82.90
2018-12-31T23:00:29.141Z,82.84
2018-12-31T23:02:58.724Z,82.85
2018-12-31T23:05:29.230Z,82.99
2018-12-31T23:07:58.667Z,83.01
2018-12-31T23:13:18.978Z,82.93
2018-12-31T23:15:48.401Z,82.85
2018-12-31T23:18:20.365Z,82.79
2018-12-31T23:26:22.866Z,82.76
2018-12-31T23:28:52.783Z,82.57
2018-12-31T23:31:24.190Z,82.47
2018-12-31T23:34:14.063Z,82.35
2018-12-31T23:37:02.408Z,82.31
2018-12-31T23:39:32.232Z,82.18
2018-12-31T23:42:01.773Z,82.15
2018-12-31T23:44:34.009Z,82.22
2018-12-31T23:47:03.387Z,82.30
2018-12-31T23:49:32.815Z,82.27
2018-12-31T23:52:02.319Z,82.21
2018-12-31T23:54:35.162Z,82.26
2018-12-31T23:57:04.638Z,82.30
2018-12-31T23:59:34.293Z,82.37
